sensor_id;sensor_type;location;lat;lon;timestamp;temperature;humidity
19110;DHT22;9687;50.836;12.060;2023-11-21T00:01:53;12.40;86.00
19110;DHT22;9687;50.836;12.060;2023-11-21T00:04:22;12.40;86.00
19110;DHT22;9687;50.836;12.060;2023-11-21T00:06:52;12.40;86.00
19110;DHT22;9687;50.836;12.060;2023-11-21T00:09:20;12.40;86.00
19110;DHT22;9687;50.836;12.060;2023-11-21T00:11:48;12.50;86.20
19110;DHT22;9687;50.836;12.060;2023-11-21T00:14:16;12.40;86.10
19110;DHT22;9687;50.836;12.060;2023-11-21T00:16:46;12.40;86.90
19110;DHT22;9687;50.836;12.060;2023-11-21T00:19:13;12.40;86.20
19110;DHT22;9687;50.836;12.060;2023-11-21T00:21:41;12.40;86.20
19110;DHT22;9687;50.836;12.060;2023-11-21T00:24:12;12.40;86.20
19110;DHT22;9687;50.836;12.060;2023-11-21T00:26:41;12.40;86.30
19110;DHT22;9687;50.836;12.060;2023-11-21T00:29:08;12.40;86.30
19110;DHT22;9687;50.836;12.060;2023-11-21T00:31:38;12.40;86.40
19110;DHT22;9687;50.836;12.060;2023-11-21T00:34:08;12.40;86.40
19110;DHT22;9687;50.836;12.060;2023-11-21T00:36:36;12.40;86.40
19110;DHT22;9687;50.836;12.060;2023-11-21T00:39:04;12.40;86.40
19110;DHT22;9687;50.836;12.060;2023-11-21T00:41:33;12.40;86.50
19110;DHT22;9687;50.836;12.060;2023-11-21T00:44:02;12.40;86.40
19110;DHT22;9687;50.836;12.060;2023-11-21T00:46:29;12.40;86.50
19110;DHT22;9687;50.836;12.060;2023-11-21T00:48:57;12.40;86.50
19110;DHT22;9687;50.836;12.060;2023-11-21T00:51:24;12.30;86.30
19110;DHT22;9687;50.836;12.060;2023-11-21T00:53:52;12.30;86.30
19110;DHT22;9687;50.836;12.060;2023-11-21T00:56:20;12.30;86.20
19110;DHT22;9687;50.836;12.060;2023-11-21T00:58:50;12.30;86.30
19110;DHT22;9687;50.836;12.060;2023-11-21T01:01:18;12.20;86.30
19110;DHT22;9687;50.836;12.060;2023-11-21T01:03:45;12.10;86.40
19110;DHT22;9687;50.836;12.060;2023-11-21T01:06:13;12.10;86.50
19110;DHT22;9687;50.836;12.060;2023-11-21T01:08:41;12.10;86.70
19110;DHT22;9687;50.836;12.060;2023-11-21T01:11:08;12.10;86.80
19110;DHT22;9687;50.836;12.060;2023-11-21T01:13:38;12.00;86.80
19110;DHT22;9687;50.836;12.060;2023-11-21T01:16:07;12.00;86.90
19110;DHT22;9687;50.836;12.060;2023-11-21T01:18:34;11.90;87.00
19110;DHT22;9687;50.836;12.060;2023-11-21T01:21:02;11.90;87.20
19110;DHT22;9687;50.836;12.060;2023-11-21T01:23:30;11.80;87.30
19110;DHT22;9687;50.836;12.060;2023-11-21T01:26:01;11.80;87.60
19110;DHT22;9687;50.836;12.060;2023-11-21T01:28:28;11.80;87.80
19110;DHT22;9687;50.836;12.060;2023-11-21T01:30:56;11.80;88.00
19110;DHT22;9687;50.836;12.060;2023-11-21T01:33:26;11.80;88.00
19110;DHT22;9687;50.836;12.060;2023-11-21T01:35:53;11.80;87.90
19110;DHT22;9687;50.836;12.060;2023-11-21T01:38:21;11.80;88.00
19110;DHT22;9687;50.836;12.060;2023-11-21T01:40:49;11.80;88.10
19110;DHT22;9687;50.836;12.060;2023-11-21T01:43:17;11.80;88.10
19110;DHT22;9687;50.836;12.060;2023-11-21T01:45:44;11.70;88.20
19110;DHT22;9687;50.836;12.060;2023-11-21T01:48:12;11.70;88.20
19110;DHT22;9687;50.836;12.060;2023-11-21T01:50:44;11.70;88.20
19110;DHT22;9687;50.836;12.060;2023-11-21T01:53:12;11.70;88.20
19110;DHT22;9687;50.836;12.060;2023-11-21T01:55:40;11.70;88.20
19110;DHT22;9687;50.836;12.060;2023-11-21T01:58:09;11.60;88.30
19110;DHT22;9687;50.836;12.060;2023-11-21T02:00:39;11.60;88.50
19110;DHT22;9687;50.836;12.060;2023-11-21T02:03:07;11.60;88.70
19110;DHT22;9687;50.836;12.060;2023-11-21T02:05:34;11.70;89.00
19110;DHT22;9687;50.836;12.060;2023-11-21T02:08:04;11.70;89.00
19110;DHT22;9687;50.836;12.060;2023-11-21T02:10:31;11.70;89.00
19110;DHT22;9687;50.836;12.060;2023-11-21T02:12:59;11.80;89.00
19110;DHT22;9687;50.836;12.060;2023-11-21T02:15:28;11.80;89.00
19110;DHT22;9687;50.836;12.060;2023-11-21T02:17:57;11.80;89.00
19110;DHT22;9687;50.836;12.060;2023-11-21T02:20:26;11.80;89.00
19110;DHT22;9687;50.836;12.060;2023-11-21T02:22:57;11.80;88.90
19110;DHT22;9687;50.836;12.060;2023-11-21T02:25:26;11.90;89.00
19110;DHT22;9687;50.836;12.060;2023-11-21T02:27:56;11.80;88.90
19110;DHT22;9687;50.836;12.060;2023-11-21T02:30:23;11.80;88.90
19110;DHT22;9687;50.836;12.060;2023-11-21T02:32:53;11.80;88.80
19110;DHT22;9687;50.836;12.060;2023-11-21T02:35:23;11.80;88.90
19110;DHT22;9687;50.836;12.060;2023-11-21T02:37:51;11.80;89.00
19110;DHT22;9687;50.836;12.060;2023-11-21T02:40:20;11.80;89.10
19110;DHT22;9687;50.836;12.060;2023-11-21T02:42:49;11.70;89.10
19110;DHT22;9687;50.836;12.060;2023-11-21T02:45:18;11.70;89.20
19110;DHT22;9687;50.836;12.060;2023-11-21T02:47:47;11.70;89.40
19110;DHT22;9687;50.836;12.060;2023-11-21T02:50:15;11.70;89.40
19110;DHT22;9687;50.836;12.060;2023-11-21T02:52:42;11.70;89.50
19110;DHT22;9687;50.836;12.060;2023-11-21T02:55:10;11.70;89.50
19110;DHT22;9687;50.836;12.060;2023-11-21T02:57:41;11.70;89.50
19110;DHT22;9687;50.836;12.060;2023-11-21T03:00:09;11.70;89.50
19110;DHT22;9687;50.836;12.060;2023-11-21T03:02:39;11.60;89.40
19110;DHT22;9687;50.836;12.060;2023-11-21T03:05:06;11.60;89.50
19110;DHT22;9687;50.836;12.060;2023-11-21T03:07:36;11.60;89.70
19110;DHT22;9687;50.836;12.060;2023-11-21T03:10:04;11.60;89.80
19110;DHT22;9687;50.836;12.060;2023-11-21T03:12:32;11.60;89.70
19110;DHT22;9687;50.836;12.060;2023-11-21T03:15:02;11.60;89.80
19110;DHT22;9687;50.836;12.060;2023-11-21T03:17:29;11.60;89.90
19110;DHT22;9687;50.836;12.060;2023-11-21T03:20:00;11.60;89.90
19110;DHT22;9687;50.836;12.060;2023-11-21T03:22:34;11.60;89.90
19110;DHT22;9687;50.836;12.060;2023-11-21T03:25:02;11.60;89.90
19110;DHT22;9687;50.836;12.060;2023-11-21T03:27:32;11.60;89.90
19110;DHT22;9687;50.836;12.060;2023-11-21T03:30:00;11.70;90.00
19110;DHT22;9687;50.836;12.060;2023-11-21T03:32:31;11.70;90.00
19110;DHT22;9687;50.836;12.060;2023-11-21T03:34:59;11.70;90.00
19110;DHT22;9687;50.836;12.060;2023-11-21T03:37:31;11.80;90.00
19110;DHT22;9687;50.836;12.060;2023-11-21T03:39:59;11.80;90.00
19110;DHT22;9687;50.836;12.060;2023-11-21T03:42:30;11.80;89.90
19110;DHT22;9687;50.836;12.060;2023-11-21T03:44:59;11.70;89.70
19110;DHT22;9687;50.836;12.060;2023-11-21T03:47:27;11.70;89.80
19110;DHT22;9687;50.836;12.060;2023-11-21T03:49:56;11.70;89.90
19110;DHT22;9687;50.836;12.060;2023-11-21T03:52:24;11.70;90.00
19110;DHT22;9687;50.836;12.060;2023-11-21T03:54:51;11.70;90.00
19110;DHT22;9687;50.836;12.060;2023-11-21T03:57:18;11.70;90.00
19110;DHT22;9687;50.836;12.060;2023-11-21T03:59:47;11.70;90.00
19110;DHT22;9687;50.836;12.060;2023-11-21T04:02:15;11.70;90.00
19110;DHT22;9687;50.836;12.060;2023-11-21T04:04:45;11.70;90.00
19110;DHT22;9687;50.836;12.060;2023-11-21T04:07:14;11.70;90.00
19110;DHT22;9687;50.836;12.060;2023-11-21T04:09:41;11.70;90.00
19110;DHT22;9687;50.836;12.060;2023-11-21T04:12:12;11.70;90.00
19110;DHT22;9687;50.836;12.060;2023-11-21T04:14:40;11.70;90.00
19110;DHT22;9687;50.836;12.060;2023-11-21T04:17:07;11.70;90.00
19110;DHT22;9687;50.836;12.060;2023-11-21T04:19:35;11.70;90.20
19110;DHT22;9687;50.836;12.060;2023-11-21T04:22:03;11.70;90.00
19110;DHT22;9687;50.836;12.060;2023-11-21T04:24:32;11.70;90.00
19110;DHT22;9687;50.836;12.060;2023-11-21T04:27:03;11.70;90.00
19110;DHT22;9687;50.836;12.060;2023-11-21T04:29:30;11.70;90.00
19110;DHT22;9687;50.836;12.060;2023-11-21T04:31:58;11.70;90.00
19110;DHT22;9687;50.836;12.060;2023-11-21T04:34:28;11.70;90.00
19110;DHT22;9687;50.836;12.060;2023-11-21T04:36:57;11.70;90.00
19110;DHT22;9687;50.836;12.060;2023-11-21T04:39:25;11.70;90.00
19110;DHT22;9687;50.836;12.060;2023-11-21T04:41:57;11.70;90.00
19110;DHT22;9687;50.836;12.060;2023-11-21T04:44:31;11.70;90.00
19110;DHT22;9687;50.836;12.060;2023-11-21T04:46:58;11.70;90.00
19110;DHT22;9687;50.836;12.060;2023-11-21T04:49:30;11.70;90.10
19110;DHT22;9687;50.836;12.060;2023-11-21T04:52:03;11.70;90.10
19110;DHT22;9687;50.836;12.060;2023-11-21T04:54:31;11.70;90.10
19110;DHT22;9687;50.836;12.060;2023-11-21T04:57:00;11.70;90.10
19110;DHT22;9687;50.836;12.060;2023-11-21T04:59:27;11.70;90.10
19110;DHT22;9687;50.836;12.060;2023-11-21T05:01:55;11.70;90.10
19110;DHT22;9687;50.836;12.060;2023-11-21T05:04:25;11.70;90.10
19110;DHT22;9687;50.836;12.060;2023-11-21T05:06:55;11.70;90.10
19110;DHT22;9687;50.836;12.060;2023-11-21T05:09:23;11.70;90.10
19110;DHT22;9687;50.836;12.060;2023-11-21T05:11:51;11.70;90.10
19110;DHT22;9687;50.836;12.060;2023-11-21T05:14:22;11.70;90.10
19110;DHT22;9687;50.836;12.060;2023-11-21T05:16:50;11.70;90.10
19110;DHT22;9687;50.836;12.060;2023-11-21T05:19:27;11.60;90.00
19110;DHT22;9687;50.836;12.060;2023-11-21T05:21:54;11.60;90.00
19110;DHT22;9687;50.836;12.060;2023-11-21T05:24:22;11.60;90.00
19110;DHT22;9687;50.836;12.060;2023-11-21T05:26:49;11.60;90.00
19110;DHT22;9687;50.836;12.060;2023-11-21T05:29:17;11.50;89.90
19110;DHT22;9687;50.836;12.060;2023-11-21T05:31:46;11.50;89.80
19110;DHT22;9687;50.836;12.060;2023-11-21T05:34:14;11.50;89.80
19110;DHT22;9687;50.836;12.060;2023-11-21T05:36:43;11.40;89.70
19110;DHT22;9687;50.836;12.060;2023-11-21T05:39:13;11.40;89.70
19110;DHT22;9687;50.836;12.060;2023-11-21T05:41:44;11.40;89.70
19110;DHT22;9687;50.836;12.060;2023-11-21T05:44:13;11.30;89.70
19110;DHT22;9687;50.836;12.060;2023-11-21T05:46:42;11.30;89.80
19110;DHT22;9687;50.836;12.060;2023-11-21T05:49:12;11.20;89.80
19110;DHT22;9687;50.836;12.060;2023-11-21T05:51:39;11.20;89.90
19110;DHT22;9687;50.836;12.060;2023-11-21T05:54:07;11.20;89.90
19110;DHT22;9687;50.836;12.060;2023-11-21T05:56:36;11.20;90.00
19110;DHT22;9687;50.836;12.060;2023-11-21T05:59:05;11.10;89.70
19110;DHT22;9687;50.836;12.060;2023-11-21T06:01:32;11.10;89.70
19110;DHT22;9687;50.836;12.060;2023-11-21T06:04:01;11.10;89.90
19110;DHT22;9687;50.836;12.060;2023-11-21T06:06:33;11.10;89.80
19110;DHT22;9687;50.836;12.060;2023-11-21T06:09:04;11.00;89.70
19110;DHT22;9687;50.836;12.060;2023-11-21T06:11:35;11.00;89.80
19110;DHT22;9687;50.836;12.060;2023-11-21T06:14:03;10.90;89.80
19110;DHT22;9687;50.836;12.060;2023-11-21T06:16:34;10.90;89.90
19110;DHT22;9687;50.836;12.060;2023-11-21T06:19:02;10.90;89.90
19110;DHT22;9687;50.836;12.060;2023-11-21T06:21:29;10.90;89.90
19110;DHT22;9687;50.836;12.060;2023-11-21T06:23:58;10.80;89.80
19110;DHT22;9687;50.836;12.060;2023-11-21T06:26:25;10.80;89.90
19110;DHT22;9687;50.836;12.060;2023-11-21T06:28:55;10.80;90.00
19110;DHT22;9687;50.836;12.060;2023-11-21T06:31:23;10.80;90.00
19110;DHT22;9687;50.836;12.060;2023-11-21T06:33:53;10.70;90.00
19110;DHT22;9687;50.836;12.060;2023-11-21T06:36:21;10.80;90.00
19110;DHT22;9687;50.836;12.060;2023-11-21T06:38:49;10.80;90.00
19110;DHT22;9687;50.836;12.060;2023-11-21T06:41:25;10.80;90.00
19110;DHT22;9687;50.836;12.060;2023-11-21T06:43:53;10.80;90.00
19110;DHT22;9687;50.836;12.060;2023-11-21T06:46:26;10.80;90.10
19110;DHT22;9687;50.836;12.060;2023-11-21T06:49:01;10.80;90.10
19110;DHT22;9687;50.836;12.060;2023-11-21T06:51:40;10.80;90.10
19110;DHT22;9687;50.836;12.060;2023-11-21T06:54:10;10.70;90.00
19110;DHT22;9687;50.836;12.060;2023-11-21T06:56:43;10.80;90.00
19110;DHT22;9687;50.836;12.060;2023-11-21T06:59:18;10.70;90.00
19110;DHT22;9687;50.836;12.060;2023-11-21T07:01:50;10.70;90.10
19110;DHT22;9687;50.836;12.060;2023-11-21T07:04:30;10.70;90.10
19110;DHT22;9687;50.836;12.060;2023-11-21T07:07:01;10.70;90.10
19110;DHT22;9687;50.836;12.060;2023-11-21T07:09:30;10.80;90.20
19110;DHT22;9687;50.836;12.060;2023-11-21T07:12:00;10.80;90.30
19110;DHT22;9687;50.836;12.060;2023-11-21T07:14:30;10.80;90.30
19110;DHT22;9687;50.836;12.060;2023-11-21T07:16:59;10.90;90.60
19110;DHT22;9687;50.836;12.060;2023-11-21T07:19:35;10.90;90.30
19110;DHT22;9687;50.836;12.060;2023-11-21T07:22:26;10.90;90.20
19110;DHT22;9687;50.836;12.060;2023-11-21T07:24:55;10.90;90.20
19110;DHT22;9687;50.836;12.060;2023-11-21T07:27:24;10.90;90.30
19110;DHT22;9687;50.836;12.060;2023-11-21T07:29:55;10.90;90.20
19110;DHT22;9687;50.836;12.060;2023-11-21T07:32:26;10.90;90.30
19110;DHT22;9687;50.836;12.060;2023-11-21T07:34:54;10.90;90.30
19110;DHT22;9687;50.836;12.060;2023-11-21T07:37:24;10.90;90.30
19110;DHT22;9687;50.836;12.060;2023-11-21T07:39:56;10.90;90.40
19110;DHT22;9687;50.836;12.060;2023-11-21T07:42:26;10.90;90.40
19110;DHT22;9687;50.836;12.060;2023-11-21T07:44:55;10.90;90.50
19110;DHT22;9687;50.836;12.060;2023-11-21T07:47:26;10.90;90.50
19110;DHT22;9687;50.836;12.060;2023-11-21T07:49:55;10.90;90.50
19110;DHT22;9687;50.836;12.060;2023-11-21T07:52:26;10.90;90.50
19110;DHT22;9687;50.836;12.060;2023-11-21T07:55:09;10.90;90.60
19110;DHT22;9687;50.836;12.060;2023-11-21T07:57:39;11.00;90.60
19110;DHT22;9687;50.836;12.060;2023-11-21T08:00:08;11.00;90.60
19110;DHT22;9687;50.836;12.060;2023-11-21T08:02:52;11.00;90.60
19110;DHT22;9687;50.836;12.060;2023-11-21T08:05:22;11.00;90.60
19110;DHT22;9687;50.836;12.060;2023-11-21T08:07:50;11.00;90.70
19110;DHT22;9687;50.836;12.060;2023-11-21T08:10:20;11.00;90.70
19110;DHT22;9687;50.836;12.060;2023-11-21T08:12:51;11.10;90.70
19110;DHT22;9687;50.836;12.060;2023-11-21T08:15:19;11.10;90.70
19110;DHT22;9687;50.836;12.060;2023-11-21T08:17:51;11.10;90.70
19110;DHT22;9687;50.836;12.060;2023-11-21T08:20:21;11.10;90.70
19110;DHT22;9687;50.836;12.060;2023-11-21T08:22:51;11.10;90.70
19110;DHT22;9687;50.836;12.060;2023-11-21T08:25:20;11.10;90.70
19110;DHT22;9687;50.836;12.060;2023-11-21T08:27:52;11.20;90.80
19110;DHT22;9687;50.836;12.060;2023-11-21T08:30:20;11.10;90.70
19110;DHT22;9687;50.836;12.060;2023-11-21T08:32:50;11.20;90.80
19110;DHT22;9687;50.836;12.060;2023-11-21T08:35:19;11.20;90.80
19110;DHT22;9687;50.836;12.060;2023-11-21T08:37:47;11.20;90.80
19110;DHT22;9687;50.836;12.060;2023-11-21T08:40:17;11.20;90.80
19110;DHT22;9687;50.836;12.060;2023-11-21T08:42:44;11.20;90.80
19110;DHT22;9687;50.836;12.060;2023-11-21T08:45:22;11.20;90.80
19110;DHT22;9687;50.836;12.060;2023-11-21T08:48:03;11.20;90.90
19110;DHT22;9687;50.836;12.060;2023-11-21T08:50:33;11.20;90.90
19110;DHT22;9687;50.836;12.060;2023-11-21T08:53:01;11.30;91.00
19110;DHT22;9687;50.836;12.060;2023-11-21T08:55:29;11.30;91.00
19110;DHT22;9687;50.836;12.060;2023-11-21T08:57:57;11.30;91.00
19110;DHT22;9687;50.836;12.060;2023-11-21T09:00:26;11.30;91.00
19110;DHT22;9687;50.836;12.060;2023-11-21T09:02:54;11.30;91.00
19110;DHT22;9687;50.836;12.060;2023-11-21T09:05:21;11.30;91.00
19110;DHT22;9687;50.836;12.060;2023-11-21T09:07:50;11.30;91.10
19110;DHT22;9687;50.836;12.060;2023-11-21T09:10:17;11.30;91.10
19110;DHT22;9687;50.836;12.060;2023-11-21T09:12:47;11.40;91.20
19110;DHT22;9687;50.836;12.060;2023-11-21T09:15:15;11.40;91.20
19110;DHT22;9687;50.836;12.060;2023-11-21T09:17:44;11.40;91.20
19110;DHT22;9687;50.836;12.060;2023-11-21T09:20:14;11.50;91.30
19110;DHT22;9687;50.836;12.060;2023-11-21T09:22:42;11.50;91.30
19110;DHT22;9687;50.836;12.060;2023-11-21T09:25:13;11.40;91.20
19110;DHT22;9687;50.836;12.060;2023-11-21T09:27:41;11.50;91.30
19110;DHT22;9687;50.836;12.060;2023-11-21T09:30:09;11.50;91.30
19110;DHT22;9687;50.836;12.060;2023-11-21T09:32:38;11.50;91.30
19110;DHT22;9687;50.836;12.060;2023-11-21T09:35:09;11.50;91.30
19110;DHT22;9687;50.836;12.060;2023-11-21T09:37:38;11.50;91.30
19110;DHT22;9687;50.836;12.060;2023-11-21T09:40:14;11.50;91.30
19110;DHT22;9687;50.836;12.060;2023-11-21T09:42:47;11.50;91.40
19110;DHT22;9687;50.836;12.060;2023-11-21T09:45:25;11.50;91.40
19110;DHT22;9687;50.836;12.060;2023-11-21T09:47:57;11.50;91.50
19110;DHT22;9687;50.836;12.060;2023-11-21T09:50:30;11.50;91.50
19110;DHT22;9687;50.836;12.060;2023-11-21T09:53:04;11.50;91.50
19110;DHT22;9687;50.836;12.060;2023-11-21T09:55:37;11.60;91.50
19110;DHT22;9687;50.836;12.060;2023-11-21T09:58:07;11.50;91.50
19110;DHT22;9687;50.836;12.060;2023-11-21T10:00:42;11.50;91.50
19110;DHT22;9687;50.836;12.060;2023-11-21T10:03:11;11.50;91.50
19110;DHT22;9687;50.836;12.060;2023-11-21T10:05:44;11.60;91.50
19110;DHT22;9687;50.836;12.060;2023-11-21T10:08:15;11.60;91.50
19110;DHT22;9687;50.836;12.060;2023-11-21T10:10:49;11.50;91.50
19110;DHT22;9687;50.836;12.060;2023-11-21T10:13:20;11.50;91.50
19110;DHT22;9687;50.836;12.060;2023-11-21T10:15:49;11.50;91.50
19110;DHT22;9687;50.836;12.060;2023-11-21T10:18:19;11.60;91.50
19110;DHT22;9687;50.836;12.060;2023-11-21T10:20:50;11.60;91.50
19110;DHT22;9687;50.836;12.060;2023-11-21T10:23:21;11.60;91.50
19110;DHT22;9687;50.836;12.060;2023-11-21T10:25:49;11.60;91.50
19110;DHT22;9687;50.836;12.060;2023-11-21T10:28:19;11.60;91.50
19110;DHT22;9687;50.836;12.060;2023-11-21T10:30:47;11.60;91.50
19110;DHT22;9687;50.836;12.060;2023-11-21T10:33:15;11.60;91.50
19110;DHT22;9687;50.836;12.060;2023-11-21T10:35:44;11.60;91.50
19110;DHT22;9687;50.836;12.060;2023-11-21T10:38:20;11.60;91.60
19110;DHT22;9687;50.836;12.060;2023-11-21T10:40:51;11.70;91.60
19110;DHT22;9687;50.836;12.060;2023-11-21T10:43:31;11.60;91.70
19110;DHT22;9687;50.836;12.060;2023-11-21T10:46:01;11.70;91.70
19110;DHT22;9687;50.836;12.060;2023-11-21T10:48:28;11.70;91.70
19110;DHT22;9687;50.836;12.060;2023-11-21T10:50:56;11.70;91.70
19110;DHT22;9687;50.836;12.060;2023-11-21T10:53:27;11.70;91.70
19110;DHT22;9687;50.836;12.060;2023-11-21T10:56:00;11.70;91.60
19110;DHT22;9687;50.836;12.060;2023-11-21T10:58:29;11.70;91.60
19110;DHT22;9687;50.836;12.060;2023-11-21T11:01:00;11.70;91.70
19110;DHT22;9687;50.836;12.060;2023-11-21T11:03:30;11.70;91.80
19110;DHT22;9687;50.836;12.060;2023-11-21T11:06:23;11.70;91.80
19110;DHT22;9687;50.836;12.060;2023-11-21T11:09:09;11.70;91.80
19110;DHT22;9687;50.836;12.060;2023-11-21T11:11:39;11.70;91.80
19110;DHT22;9687;50.836;12.060;2023-11-21T11:14:38;11.70;91.90
19110;DHT22;9687;50.836;12.060;2023-11-21T11:17:30;11.70;91.90
19110;DHT22;9687;50.836;12.060;2023-11-21T11:19:59;11.70;91.90
19110;DHT22;9687;50.836;12.060;2023-11-21T11:22:30;11.70;91.90
19110;DHT22;9687;50.836;12.060;2023-11-21T11:25:19;11.70;91.90
19110;DHT22;9687;50.836;12.060;2023-11-21T11:27:52;11.70;91.90
19110;DHT22;9687;50.836;12.060;2023-11-21T11:30:26;11.70;91.90
19110;DHT22;9687;50.836;12.060;2023-11-21T11:33:04;11.70;92.00
19110;DHT22;9687;50.836;12.060;2023-11-21T11:35:40;11.50;91.90
19110;DHT22;9687;50.836;12.060;2023-11-21T11:38:13;11.70;92.00
19110;DHT22;9687;50.836;12.060;2023-11-21T11:40:45;11.70;92.00
19110;DHT22;9687;50.836;12.060;2023-11-21T11:43:16;11.70;92.00
19110;DHT22;9687;50.836;12.060;2023-11-21T11:45:56;11.70;92.00
19110;DHT22;9687;50.836;12.060;2023-11-21T11:48:25;11.70;92.10
19110;DHT22;9687;50.836;12.060;2023-11-21T11:51:03;11.60;92.00
19110;DHT22;9687;50.836;12.060;2023-11-21T11:53:39;11.60;92.00
19110;DHT22;9687;50.836;12.060;2023-11-21T11:56:27;11.60;92.10
19110;DHT22;9687;50.836;12.060;2023-11-21T11:59:01;11.60;92.10
19110;DHT22;9687;50.836;12.060;2023-11-21T12:01:33;11.60;92.10
19110;DHT22;9687;50.836;12.060;2023-11-21T12:06:47;11.60;92.10
19110;DHT22;9687;50.836;12.060;2023-11-21T12:09:17;11.60;92.20
19110;DHT22;9687;50.836;12.060;2023-11-21T12:11:47;11.60;92.20
19110;DHT22;9687;50.836;12.060;2023-11-21T12:14:15;11.60;92.30
19110;DHT22;9687;50.836;12.060;2023-11-21T12:16:45;11.60;92.30
19110;DHT22;9687;50.836;12.060;2023-11-21T12:19:14;11.80;92.40
19110;DHT22;9687;50.836;12.060;2023-11-21T12:21:48;11.60;92.30
19110;DHT22;9687;50.836;12.060;2023-11-21T12:24:17;11.60;92.30
19110;DHT22;9687;50.836;12.060;2023-11-21T12:26:48;11.60;92.30
19110;DHT22;9687;50.836;12.060;2023-11-21T12:29:22;11.60;92.30
19110;DHT22;9687;50.836;12.060;2023-11-21T12:31:51;11.60;92.30
19110;DHT22;9687;50.836;12.060;2023-11-21T12:34:23;11.60;92.40
19110;DHT22;9687;50.836;12.060;2023-11-21T12:37:07;11.60;92.40
19110;DHT22;9687;50.836;12.060;2023-11-21T12:39:36;11.60;92.50
19110;DHT22;9687;50.836;12.060;2023-11-21T12:42:09;11.60;92.50
19110;DHT22;9687;50.836;12.060;2023-11-21T12:44:39;11.60;92.50
19110;DHT22;9687;50.836;12.060;2023-11-21T12:47:15;11.60;92.50
19110;DHT22;9687;50.836;12.060;2023-11-21T12:49:45;11.60;92.50
19110;DHT22;9687;50.836;12.060;2023-11-21T12:52:13;11.60;92.50
19110;DHT22;9687;50.836;12.060;2023-11-21T12:54:40;11.60;92.50
19110;DHT22;9687;50.836;12.060;2023-11-21T12:57:13;11.60;92.50
19110;DHT22;9687;50.836;12.060;2023-11-21T12:59:44;11.50;92.50
19110;DHT22;9687;50.836;12.060;2023-11-21T13:02:17;11.50;92.50
19110;DHT22;9687;50.836;12.060;2023-11-21T13:04:51;11.50;92.50
19110;DHT22;9687;50.836;12.060;2023-11-21T13:07:19;11.50;92.50
19110;DHT22;9687;50.836;12.060;2023-11-21T13:09:51;11.40;92.40
19110;DHT22;9687;50.836;12.060;2023-11-21T13:12:24;11.40;92.40
19110;DHT22;9687;50.836;12.060;2023-11-21T13:14:52;11.40;92.40
19110;DHT22;9687;50.836;12.060;2023-11-21T13:17:20;11.40;92.40
19110;DHT22;9687;50.836;12.060;2023-11-21T13:19:53;11.40;92.50
19110;DHT22;9687;50.836;12.060;2023-11-21T13:22:25;11.30;92.50
19110;DHT22;9687;50.836;12.060;2023-11-21T13:24:55;11.30;92.40
19110;DHT22;9687;50.836;12.060;2023-11-21T13:27:26;11.30;92.40
19110;DHT22;9687;50.836;12.060;2023-11-21T13:29:57;11.30;92.40
19110;DHT22;9687;50.836;12.060;2023-11-21T13:32:25;11.30;92.40
19110;DHT22;9687;50.836;12.060;2023-11-21T13:34:53;11.30;92.40
19110;DHT22;9687;50.836;12.060;2023-11-21T13:37:21;11.20;92.40
19110;DHT22;9687;50.836;12.060;2023-11-21T13:39:52;11.20;92.40
19110;DHT22;9687;50.836;12.060;2023-11-21T13:42:30;11.20;92.40
19110;DHT22;9687;50.836;12.060;2023-11-21T13:45:09;11.10;92.30
19110;DHT22;9687;50.836;12.060;2023-11-21T13:47:39;11.10;92.30
19110;DHT22;9687;50.836;12.060;2023-11-21T13:50:09;11.10;92.30
19110;DHT22;9687;50.836;12.060;2023-11-21T13:52:43;11.10;92.30
19110;DHT22;9687;50.836;12.060;2023-11-21T13:55:14;11.00;92.20
19110;DHT22;9687;50.836;12.060;2023-11-21T13:57:46;11.00;92.30
19110;DHT22;9687;50.836;12.060;2023-11-21T14:00:16;11.00;92.30
19110;DHT22;9687;50.836;12.060;2023-11-21T14:02:57;11.00;92.30
19110;DHT22;9687;50.836;12.060;2023-11-21T14:05:28;11.00;92.30
19110;DHT22;9687;50.836;12.060;2023-11-21T14:08:00;11.00;92.30
19110;DHT22;9687;50.836;12.060;2023-11-21T14:10:31;11.00;92.30
19110;DHT22;9687;50.836;12.060;2023-11-21T14:13:08;11.00;92.30
19110;DHT22;9687;50.836;12.060;2023-11-21T14:15:36;10.90;92.30
19110;DHT22;9687;50.836;12.060;2023-11-21T14:18:07;11.00;92.30
19110;DHT22;9687;50.836;12.060;2023-11-21T14:20:41;10.90;92.30
19110;DHT22;9687;50.836;12.060;2023-11-21T14:23:13;10.90;92.30
19110;DHT22;9687;50.836;12.060;2023-11-21T14:25:42;10.90;92.30
19110;DHT22;9687;50.836;12.060;2023-11-21T14:28:11;10.90;92.30
19110;DHT22;9687;50.836;12.060;2023-11-21T14:30:39;10.90;92.20
19110;DHT22;9687;50.836;12.060;2023-11-21T14:33:15;10.90;92.20
19110;DHT22;9687;50.836;12.060;2023-11-21T14:35:43;10.90;92.20
19110;DHT22;9687;50.836;12.060;2023-11-21T14:38:12;10.80;92.10
19110;DHT22;9687;50.836;12.060;2023-11-21T14:40:40;10.80;92.10
19110;DHT22;9687;50.836;12.060;2023-11-21T14:43:08;10.80;92.10
19110;DHT22;9687;50.836;12.060;2023-11-21T14:45:38;10.70;92.00
19110;DHT22;9687;50.836;12.060;2023-11-21T14:48:06;10.70;92.00
19110;DHT22;9687;50.836;12.060;2023-11-21T14:50:43;10.70;92.30
19110;DHT22;9687;50.836;12.060;2023-11-21T14:53:37;10.60;91.90
19110;DHT22;9687;50.836;12.060;2023-11-21T14:56:19;10.60;92.20
19110;DHT22;9687;50.836;12.060;2023-11-21T14:58:53;10.60;91.80
19110;DHT22;9687;50.836;12.060;2023-11-21T15:01:22;10.60;91.80
19110;DHT22;9687;50.836;12.060;2023-11-21T15:04:01;10.50;91.80
19110;DHT22;9687;50.836;12.060;2023-11-21T15:06:28;10.50;91.80
19110;DHT22;9687;50.836;12.060;2023-11-21T15:08:56;10.50;91.80
19110;DHT22;9687;50.836;12.060;2023-11-21T15:11:55;10.40;91.80
19110;DHT22;9687;50.836;12.060;2023-11-21T15:14:29;10.40;91.80
19110;DHT22;9687;50.836;12.060;2023-11-21T15:17:01;10.30;91.70
19110;DHT22;9687;50.836;12.060;2023-11-21T15:19:31;10.40;91.70
19110;DHT22;9687;50.836;12.060;2023-11-21T15:21:58;10.30;91.60
19110;DHT22;9687;50.836;12.060;2023-11-21T15:24:26;10.30;91.60
19110;DHT22;9687;50.836;12.060;2023-11-21T15:26:54;10.30;91.60
19110;DHT22;9687;50.836;12.060;2023-11-21T15:29:26;10.20;91.50
19110;DHT22;9687;50.836;12.060;2023-11-21T15:31:54;10.20;91.40
19110;DHT22;9687;50.836;12.060;2023-11-21T15:34:25;10.20;91.40
19110;DHT22;9687;50.836;12.060;2023-11-21T15:36:56;10.20;91.40
19110;DHT22;9687;50.836;12.060;2023-11-21T15:39:24;10.10;91.40
19110;DHT22;9687;50.836;12.060;2023-11-21T15:41:56;10.10;91.40
19110;DHT22;9687;50.836;12.060;2023-11-21T15:44:26;10.10;91.40
19110;DHT22;9687;50.836;12.060;2023-11-21T15:46:58;10.10;91.40
19110;DHT22;9687;50.836;12.060;2023-11-21T15:49:28;10.10;91.30
19110;DHT22;9687;50.836;12.060;2023-11-21T15:51:56;10.10;91.30
19110;DHT22;9687;50.836;12.060;2023-11-21T15:54:26;10.00;91.20